Nisula, MI (49952)

6:36 AM EDT on August 24, 2016 (GMT -0400)
RAWS | | Change Station

Elev 1262 ft 46.61 °N, 88.91 °W | Updated 40 minutes ago

Rain
Rain
64.0 °F
Feels Like 64.0 °F
N
2.0
Wind Variable Wind from SSW
Gusts 6.0 mph

Today
High -- | Low -- °F
--% Chance of Precip.
Yesterday
High -- | Low -- °F
Precip. -- in
Pressure 29.89 in
Visibility 10.0 miles
Clouds Scattered Clouds 3800 ft
Mostly Cloudy 5500 ft
Overcast 6500 ft
Dew Point 64.0 °F
Humidity 99%
Rainfall in
Snow Depth Not available.
7:05 AM 8:48 PM
Waning Gibbous, 58% visible
METAR KLNL 241015Z AUTO 00000KT 10SM RA SCT038 BKN055 OVC065 18/17 A2989 RMK AO2 T01790167
Pressure 29.89 in
Visibility 10.0 miles
Clouds Scattered Clouds 3800 ft
Mostly Cloudy 5500 ft
Overcast 6500 ft
Dew Point 64.0 °F
Humidity 99%
Rainfall in
Snow Depth Not available.
7:05 AM 8:48 PM
Waning Gibbous, 58% visible
METAR KLNL 241015Z AUTO 00000KT 10SM RA SCT038 BKN055 OVC065 18/17 A2989 RMK AO2 T01790167

10-Day Weather Forecast

Almanac

Astronomy

Aug. 24, 2016 Rise Set
Actual Time
Civil Twilight
Nautical Twilight
Astronomical Twilight
Moon
Length of Visible Light
Length of Day
Tomorrow will be .
, % of the Moon is Illuminated

Today's Extremes

State Highs State Lows

Community

WunderPhotos

Upload Photos

1,934,562 photos uploaded!

WunderBlog® & News

Nearby

Air Quality

  Air Quality AQ Index Pollutant
Not available.

Snow Depth

Station Depth Elevation

Earthquake Activity

City Distance Mag. Time & Date
Minimum magnitude displayed is 2.5.

Coastal Water Temperatures

Place Temperature

Stations

Nearby Weather Stations

Station Location Temp. Windchill Dew Point Humidity Wind Precip. Elev Updated Type
                   

Watches & Warnings

There are currently no watches in effect.